Terminal Aerodrome Forecast
Issued by NWS

Home | Current Version | Previous Version | Text Only | Print | Product List | Glossary On
Versions: 1 2 3 4 5 6 7 8 9 10 11 12 13 14 15
000
FTUS46 KOTX 211938 AAA
TAFMWH
TAF AMD
KMWH 211938Z 2120/2218 35005KT 4SM -RA BR OVC035
     FM212300 VRB03KT 4SM -RA BR SCT007 OVC025
     FM220500 17003KT P6SM -RA OVC030
     FM220800 17002KT P6SM OVC050
     FM221500 VRB03KT P6SM VCSH OVC015=

USA.gov is the U.S. government's official web portal to all federal, state and local government web resources and services.